sensor_id;sensor_type;location;lat;lon;timestamp;pressure;altitude;pressure_sealevel;temperature
80422;BMP280;69763;50.182;9.144;2024-02-26T00:01:35;98235.69;;;4.35
80422;BMP280;69763;50.182;9.144;2024-02-26T00:04:00;98240.19;;;4.45
80422;BMP280;69763;50.182;9.144;2024-02-26T00:06:26;98230.66;;;4.63
80422;BMP280;69763;50.182;9.144;2024-02-26T00:08:53;98233.34;;;4.76
80422;BMP280;69763;50.182;9.144;2024-02-26T00:11:18;98221.41;;;4.90
80422;BMP280;69763;50.182;9.144;2024-02-26T00:13:43;98216.88;;;4.98
80422;BMP280;69763;50.182;9.144;2024-02-26T00:16:09;98222.25;;;4.98
80422;BMP280;69763;50.182;9.144;2024-02-26T00:18:34;98226.59;;;5.01
80422;BMP280;69763;50.182;9.144;2024-02-26T00:20:59;98231.91;;;5.07
80422;BMP280;69763;50.182;9.144;2024-02-26T00:23:25;98222.28;;;5.12
80422;BMP280;69763;50.182;9.144;2024-02-26T00:25:51;98225.47;;;5.10
80422;BMP280;69763;50.182;9.144;2024-02-26T00:28:17;98225.28;;;5.08
80422;BMP280;69763;50.182;9.144;2024-02-26T00:30:42;98226.09;;;5.03
80422;BMP280;69763;50.182;9.144;2024-02-26T00:33:08;98221.97;;;5.02
80422;BMP280;69763;50.182;9.144;2024-02-26T00:35:33;98218.56;;;5.01
80422;BMP280;69763;50.182;9.144;2024-02-26T00:37:59;98209.97;;;5.03
80422;BMP280;69763;50.182;9.144;2024-02-26T00:40:24;98215.88;;;5.01
80422;BMP280;69763;50.182;9.144;2024-02-26T00:42:51;98214.19;;;4.98
80422;BMP280;69763;50.182;9.144;2024-02-26T00:45:16;98221.63;;;4.92
80422;BMP280;69763;50.182;9.144;2024-02-26T00:47:42;98226.69;;;4.83
80422;BMP280;69763;50.182;9.144;2024-02-26T00:50:07;98220.47;;;4.75
80422;BMP280;69763;50.182;9.144;2024-02-26T00:52:33;98231.50;;;4.71
80422;BMP280;69763;50.182;9.144;2024-02-26T00:54:58;98228.63;;;4.69
80422;BMP280;69763;50.182;9.144;2024-02-26T00:57:24;98222.22;;;4.72
80422;BMP280;69763;50.182;9.144;2024-02-26T00:59:51;98237.31;;;4.75
80422;BMP280;69763;50.182;9.144;2024-02-26T01:02:16;98238.19;;;4.64
80422;BMP280;69763;50.182;9.144;2024-02-26T01:04:41;98231.47;;;4.58
80422;BMP280;69763;50.182;9.144;2024-02-26T01:07:07;98233.72;;;4.54
80422;BMP280;69763;50.182;9.144;2024-02-26T01:09:32;98231.03;;;4.54
80422;BMP280;69763;50.182;9.144;2024-02-26T01:11:57;98239.09;;;4.54
80422;BMP280;69763;50.182;9.144;2024-02-26T01:14:23;98231.25;;;4.56
80422;BMP280;69763;50.182;9.144;2024-02-26T01:16:49;98231.59;;;4.65
80422;BMP280;69763;50.182;9.144;2024-02-26T01:19:15;98236.69;;;4.69
80422;BMP280;69763;50.182;9.144;2024-02-26T01:21:40;98242.34;;;4.65
80422;BMP280;69763;50.182;9.144;2024-02-26T01:24:06;98235.53;;;4.64
80422;BMP280;69763;50.182;9.144;2024-02-26T01:26:31;98242.34;;;4.65
80422;BMP280;69763;50.182;9.144;2024-02-26T01:28:56;98238.63;;;4.69
80422;BMP280;69763;50.182;9.144;2024-02-26T01:31:22;98239.03;;;4.73
80422;BMP280;69763;50.182;9.144;2024-02-26T01:33:48;98230.69;;;4.76
80422;BMP280;69763;50.182;9.144;2024-02-26T01:36:14;98241.84;;;4.80
80422;BMP280;69763;50.182;9.144;2024-02-26T01:38:39;98242.97;;;4.85
80422;BMP280;69763;50.182;9.144;2024-02-26T01:41:05;98232.25;;;4.85
80422;BMP280;69763;50.182;9.144;2024-02-26T01:43:30;98247.09;;;4.86
80422;BMP280;69763;50.182;9.144;2024-02-26T01:45:55;98235.34;;;4.89
80422;BMP280;69763;50.182;9.144;2024-02-26T01:48:21;98213.47;;;4.98
80422;BMP280;69763;50.182;9.144;2024-02-26T01:50:47;98210.72;;;5.03
80422;BMP280;69763;50.182;9.144;2024-02-26T01:53:13;98199.13;;;5.09
80422;BMP280;69763;50.182;9.144;2024-02-26T01:55:39;98190.78;;;5.12
80422;BMP280;69763;50.182;9.144;2024-02-26T01:58:05;98197.59;;;5.13
80422;BMP280;69763;50.182;9.144;2024-02-26T02:00:30;98210.50;;;5.15
80422;BMP280;69763;50.182;9.144;2024-02-26T02:02:56;98210.59;;;5.09
80422;BMP280;69763;50.182;9.144;2024-02-26T02:05:25;98207.00;;;5.07
80422;BMP280;69763;50.182;9.144;2024-02-26T02:07:53;98202.03;;;5.11
80422;BMP280;69763;50.182;9.144;2024-02-26T02:10:19;98201.75;;;5.14
80422;BMP280;69763;50.182;9.144;2024-02-26T02:12:45;98185.53;;;5.20
80422;BMP280;69763;50.182;9.144;2024-02-26T02:15:10;98178.91;;;5.21
80422;BMP280;69763;50.182;9.144;2024-02-26T02:17:36;98175.19;;;5.24
80422;BMP280;69763;50.182;9.144;2024-02-26T02:20:01;98184.69;;;5.25
80422;BMP280;69763;50.182;9.144;2024-02-26T02:22:28;98175.19;;;5.24
80422;BMP280;69763;50.182;9.144;2024-02-26T02:24:53;98176.63;;;5.25
80422;BMP280;69763;50.182;9.144;2024-02-26T02:27:19;98190.78;;;5.25
80422;BMP280;69763;50.182;9.144;2024-02-26T02:29:45;98207.94;;;5.22
80422;BMP280;69763;50.182;9.144;2024-02-26T02:32:11;98191.59;;;5.20
80422;BMP280;69763;50.182;9.144;2024-02-26T02:34:36;98205.97;;;5.23
80422;BMP280;69763;50.182;9.144;2024-02-26T02:37:02;98230.13;;;5.23
80422;BMP280;69763;50.182;9.144;2024-02-26T02:39:29;98211.44;;;5.17
80422;BMP280;69763;50.182;9.144;2024-02-26T02:41:54;98208.34;;;5.13
80422;BMP280;69763;50.182;9.144;2024-02-26T02:44:20;98197.09;;;5.15
80422;BMP280;69763;50.182;9.144;2024-02-26T02:46:45;98180.47;;;5.16
80422;BMP280;69763;50.182;9.144;2024-02-26T02:49:10;98183.66;;;5.15
80422;BMP280;69763;50.182;9.144;2024-02-26T02:51:36;98183.88;;;5.17
80422;BMP280;69763;50.182;9.144;2024-02-26T02:54:01;98191.22;;;5.16
80422;BMP280;69763;50.182;9.144;2024-02-26T02:56:28;98188.53;;;5.16
80422;BMP280;69763;50.182;9.144;2024-02-26T02:58:54;98159.91;;;5.19
80422;BMP280;69763;50.182;9.144;2024-02-26T03:01:19;98173.53;;;5.21
80422;BMP280;69763;50.182;9.144;2024-02-26T03:03:45;98177.66;;;5.22
80422;BMP280;69763;50.182;9.144;2024-02-26T03:06:10;98175.69;;;5.22
80422;BMP280;69763;50.182;9.144;2024-02-26T03:08:35;98166.91;;;5.22
80422;BMP280;69763;50.182;9.144;2024-02-26T03:11:01;98163.50;;;5.21
80422;BMP280;69763;50.182;9.144;2024-02-26T03:13:28;98178.00;;;5.18
80422;BMP280;69763;50.182;9.144;2024-02-26T03:15:53;98192.97;;;5.14
80422;BMP280;69763;50.182;9.144;2024-02-26T03:18:18;98197.72;;;5.08
80422;BMP280;69763;50.182;9.144;2024-02-26T03:20:44;98189.53;;;5.00
80422;BMP280;69763;50.182;9.144;2024-02-26T03:23:09;98182.94;;;5.01
80422;BMP280;69763;50.182;9.144;2024-02-26T03:25:34;98176.84;;;5.00
80422;BMP280;69763;50.182;9.144;2024-02-26T03:28:00;98200.28;;;5.00
80422;BMP280;69763;50.182;9.144;2024-02-26T03:30:26;98194.28;;;4.94
80422;BMP280;69763;50.182;9.144;2024-02-26T03:32:52;98225.56;;;4.91
80422;BMP280;69763;50.182;9.144;2024-02-26T03:35:17;98230.28;;;4.85
80422;BMP280;69763;50.182;9.144;2024-02-26T03:37:42;98216.56;;;4.89
80422;BMP280;69763;50.182;9.144;2024-02-26T03:40:09;98215.53;;;4.92
80422;BMP280;69763;50.182;9.144;2024-02-26T03:42:34;98203.56;;;4.93
80422;BMP280;69763;50.182;9.144;2024-02-26T03:44:59;98226.78;;;4.90
80422;BMP280;69763;50.182;9.144;2024-02-26T03:47:26;98229.19;;;4.94
80422;BMP280;69763;50.182;9.144;2024-02-26T03:49:51;98233.81;;;4.93
80422;BMP280;69763;50.182;9.144;2024-02-26T03:52:17;98231.72;;;4.86
80422;BMP280;69763;50.182;9.144;2024-02-26T03:54:42;98224.81;;;4.78
80422;BMP280;69763;50.182;9.144;2024-02-26T03:57:08;98229.13;;;4.68
80422;BMP280;69763;50.182;9.144;2024-02-26T03:59:33;98231.16;;;4.61
80422;BMP280;69763;50.182;9.144;2024-02-26T04:01:58;98244.16;;;4.57
80422;BMP280;69763;50.182;9.144;2024-02-26T04:04:25;98245.19;;;4.54
80422;BMP280;69763;50.182;9.144;2024-02-26T04:06:51;98239.16;;;4.48
80422;BMP280;69763;50.182;9.144;2024-02-26T04:09:16;98233.00;;;4.53
80422;BMP280;69763;50.182;9.144;2024-02-26T04:11:41;98252.78;;;4.50
80422;BMP280;69763;50.182;9.144;2024-02-26T04:14:07;98254.31;;;4.46
80422;BMP280;69763;50.182;9.144;2024-02-26T04:16:33;98257.31;;;4.42
80422;BMP280;69763;50.182;9.144;2024-02-26T04:18:58;98259.69;;;4.46
80422;BMP280;69763;50.182;9.144;2024-02-26T04:21:25;98255.75;;;4.47
80422;BMP280;69763;50.182;9.144;2024-02-26T04:23:50;98259.41;;;4.49
80422;BMP280;69763;50.182;9.144;2024-02-26T04:26:15;98256.72;;;4.49
80422;BMP280;69763;50.182;9.144;2024-02-26T04:28:41;98257.22;;;4.48
80422;BMP280;69763;50.182;9.144;2024-02-26T04:31:06;98258.22;;;4.45
80422;BMP280;69763;50.182;9.144;2024-02-26T04:33:33;98254.84;;;4.44
80422;BMP280;69763;50.182;9.144;2024-02-26T04:35:59;98255.34;;;4.43
80422;BMP280;69763;50.182;9.144;2024-02-26T04:38:25;98253.91;;;4.42
80422;BMP280;69763;50.182;9.144;2024-02-26T04:40:51;98261.44;;;4.43
80422;BMP280;69763;50.182;9.144;2024-02-26T04:43:16;98251.94;;;4.42
80422;BMP280;69763;50.182;9.144;2024-02-26T04:45:42;98254.84;;;4.44
80422;BMP280;69763;50.182;9.144;2024-02-26T04:48:07;98256.50;;;4.47
80422;BMP280;69763;50.182;9.144;2024-02-26T04:50:32;98250.19;;;4.45
80422;BMP280;69763;50.182;9.144;2024-02-26T04:52:58;98254.84;;;4.44
80422;BMP280;69763;50.182;9.144;2024-02-26T04:55:25;98248.53;;;4.42
80422;BMP280;69763;50.182;9.144;2024-02-26T04:57:50;98247.59;;;4.39
80422;BMP280;69763;50.182;9.144;2024-02-26T05:00:16;98249.09;;;4.35
80422;BMP280;69763;50.182;9.144;2024-02-26T05:02:41;98244.97;;;4.34
80422;BMP280;69763;50.182;9.144;2024-02-26T05:05:07;98233.84;;;4.29
80422;BMP280;69763;50.182;9.144;2024-02-26T05:07:33;98244.75;;;4.32
80422;BMP280;69763;50.182;9.144;2024-02-26T05:09:58;98239.69;;;4.28
80422;BMP280;69763;50.182;9.144;2024-02-26T05:12:25;98246.81;;;4.25
80422;BMP280;69763;50.182;9.144;2024-02-26T05:14:50;98238.75;;;4.25
80422;BMP280;69763;50.182;9.144;2024-02-26T05:17:15;98238.13;;;4.19
80422;BMP280;69763;50.182;9.144;2024-02-26T05:19:41;98259.34;;;4.17
80422;BMP280;69763;50.182;9.144;2024-02-26T05:22:06;98255.44;;;4.18
80422;BMP280;69763;50.182;9.144;2024-02-26T05:24:32;98261.03;;;4.20
80422;BMP280;69763;50.182;9.144;2024-02-26T05:26:57;98267.09;;;4.21
80422;BMP280;69763;50.182;9.144;2024-02-26T05:29:24;98266.06;;;4.24
80422;BMP280;69763;50.182;9.144;2024-02-26T05:31:49;98268.97;;;4.26
80422;BMP280;69763;50.182;9.144;2024-02-26T05:34:14;98271.16;;;4.27
80422;BMP280;69763;50.182;9.144;2024-02-26T05:36:40;98265.56;;;4.25
80422;BMP280;69763;50.182;9.144;2024-02-26T05:39:05;98269.28;;;4.22
80422;BMP280;69763;50.182;9.144;2024-02-26T05:41:30;98264.13;;;4.24
80422;BMP280;69763;50.182;9.144;2024-02-26T05:43:56;98262.38;;;4.27
80422;BMP280;69763;50.182;9.144;2024-02-26T05:46:23;98263.75;;;4.34
80422;BMP280;69763;50.182;9.144;2024-02-26T05:48:50;98255.91;;;4.36
80422;BMP280;69763;50.182;9.144;2024-02-26T05:51:15;98270.06;;;4.36
80422;BMP280;69763;50.182;9.144;2024-02-26T05:53:41;98272.00;;;4.36
80422;BMP280;69763;50.182;9.144;2024-02-26T05:56:06;98267.38;;;4.36
80422;BMP280;69763;50.182;9.144;2024-02-26T05:58:32;98277.81;;;4.40
80422;BMP280;69763;50.182;9.144;2024-02-26T06:00:57;98289.78;;;4.39
80422;BMP280;69763;50.182;9.144;2024-02-26T06:03:24;98287.81;;;4.39
80422;BMP280;69763;50.182;9.144;2024-02-26T06:05:49;98290.72;;;4.41
80422;BMP280;69763;50.182;9.144;2024-02-26T06:08:14;98295.28;;;4.46
80422;BMP280;69763;50.182;9.144;2024-02-26T06:10:40;98303.31;;;4.46
80422;BMP280;69763;50.182;9.144;2024-02-26T06:13:05;98311.19;;;4.44
80422;BMP280;69763;50.182;9.144;2024-02-26T06:15:31;98312.41;;;4.43
80422;BMP280;69763;50.182;9.144;2024-02-26T06:17:56;98306.00;;;4.46
80422;BMP280;69763;50.182;9.144;2024-02-26T06:20:23;98323.06;;;4.49
80422;BMP280;69763;50.182;9.144;2024-02-26T06:22:48;98321.31;;;4.51
80422;BMP280;69763;50.182;9.144;2024-02-26T06:25:13;98325.44;;;4.52
80422;BMP280;69763;50.182;9.144;2024-02-26T06:27:39;98333.50;;;4.52
80422;BMP280;69763;50.182;9.144;2024-02-26T06:30:06;98331.75;;;4.55
80422;BMP280;69763;50.182;9.144;2024-02-26T06:32:31;98341.47;;;4.58
80422;BMP280;69763;50.182;9.144;2024-02-26T06:34:57;98338.00;;;4.63
80422;BMP280;69763;50.182;9.144;2024-02-26T06:37:23;98342.84;;;4.64
80422;BMP280;69763;50.182;9.144;2024-02-26T06:39:49;98356.72;;;4.69
80422;BMP280;69763;50.182;9.144;2024-02-26T06:42:14;98354.22;;;4.71
80422;BMP280;69763;50.182;9.144;2024-02-26T06:44:39;98352.47;;;4.73
80422;BMP280;69763;50.182;9.144;2024-02-26T06:47:05;98358.78;;;4.76
80422;BMP280;69763;50.182;9.144;2024-02-26T06:49:30;98362.91;;;4.77
80422;BMP280;69763;50.182;9.144;2024-02-26T06:51:55;98367.75;;;4.78
80422;BMP280;69763;50.182;9.144;2024-02-26T06:54:22;98361.69;;;4.78
80422;BMP280;69763;50.182;9.144;2024-02-26T06:56:48;98368.50;;;4.79
80422;BMP280;69763;50.182;9.144;2024-02-26T06:59:13;98369.44;;;4.81
80422;BMP280;69763;50.182;9.144;2024-02-26T07:01:40;98366.53;;;4.79
80422;BMP280;69763;50.182;9.144;2024-02-26T07:04:05;98358.25;;;4.77
80422;BMP280;69763;50.182;9.144;2024-02-26T07:06:30;98373.00;;;4.71
80422;BMP280;69763;50.182;9.144;2024-02-26T07:08:56;98361.91;;;4.61
80422;BMP280;69763;50.182;9.144;2024-02-26T07:11:22;98372.50;;;4.53
80422;BMP280;69763;50.182;9.144;2024-02-26T07:13:48;98374.97;;;4.51
80422;BMP280;69763;50.182;9.144;2024-02-26T07:16:13;98373.78;;;4.47
80422;BMP280;69763;50.182;9.144;2024-02-26T07:18:38;98378.13;;;4.31
80422;BMP280;69763;50.182;9.144;2024-02-26T07:21:04;98374.94;;;4.14
80422;BMP280;69763;50.182;9.144;2024-02-26T07:23:30;98380.13;;;4.06
80422;BMP280;69763;50.182;9.144;2024-02-26T07:25:56;98373.16;;;3.98
80422;BMP280;69763;50.182;9.144;2024-02-26T07:28:23;98385.88;;;3.91
80422;BMP280;69763;50.182;9.144;2024-02-26T07:30:49;98373.78;;;3.85
80422;BMP280;69763;50.182;9.144;2024-02-26T07:33:14;98387.22;;;3.79
80422;BMP280;69763;50.182;9.144;2024-02-26T07:35:39;98377.97;;;3.75
80422;BMP280;69763;50.182;9.144;2024-02-26T07:38:05;98378.72;;;3.75
80422;BMP280;69763;50.182;9.144;2024-02-26T07:40:30;98385.09;;;3.72
80422;BMP280;69763;50.182;9.144;2024-02-26T07:42:56;98387.03;;;3.72
80422;BMP280;69763;50.182;9.144;2024-02-26T07:45:22;98389.53;;;3.70
80422;BMP280;69763;50.182;9.144;2024-02-26T07:47:48;98383.94;;;3.68
80422;BMP280;69763;50.182;9.144;2024-02-26T07:50:13;98391.00;;;3.65
80422;BMP280;69763;50.182;9.144;2024-02-26T07:52:39;98399.28;;;3.67
80422;BMP280;69763;50.182;9.144;2024-02-26T07:55:05;98404.13;;;3.69
80422;BMP280;69763;50.182;9.144;2024-02-26T07:57:32;98399.28;;;3.67
80422;BMP280;69763;50.182;9.144;2024-02-26T07:59:57;98398.81;;;3.63
80422;BMP280;69763;50.182;9.144;2024-02-26T08:02:24;98394.41;;;3.66
80422;BMP280;69763;50.182;9.144;2024-02-26T08:04:49;98397.09;;;3.66
80422;BMP280;69763;50.182;9.144;2024-02-26T08:07:15;98396.13;;;3.63
80422;BMP280;69763;50.182;9.144;2024-02-26T08:09:40;98397.81;;;3.66
80422;BMP280;69763;50.182;9.144;2024-02-26T08:12:06;98401.72;;;3.65
80422;BMP280;69763;50.182;9.144;2024-02-26T08:14:32;98410.03;;;3.62
80422;BMP280;69763;50.182;9.144;2024-02-26T08:16:57;98406.34;;;3.65
80422;BMP280;69763;50.182;9.144;2024-02-26T08:19:24;98404.19;;;3.63
80422;BMP280;69763;50.182;9.144;2024-02-26T08:21:49;98405.63;;;3.64
80422;BMP280;69763;50.182;9.144;2024-02-26T08:24:14;98404.41;;;3.65
80422;BMP280;69763;50.182;9.144;2024-02-26T08:26:40;98405.81;;;3.72
80422;BMP280;69763;50.182;9.144;2024-02-26T08:29:05;98415.97;;;3.79
80422;BMP280;69763;50.182;9.144;2024-02-26T08:31:31;98403.97;;;3.85
80422;BMP280;69763;50.182;9.144;2024-02-26T08:33:56;98400.56;;;3.85
80422;BMP280;69763;50.182;9.144;2024-02-26T08:36:23;98411.50;;;3.87
80422;BMP280;69763;50.182;9.144;2024-02-26T08:38:48;98415.13;;;3.89
80422;BMP280;69763;50.182;9.144;2024-02-26T08:41:13;98413.91;;;3.90
80422;BMP280;69763;50.182;9.144;2024-02-26T08:43:39;98413.91;;;3.90
80422;BMP280;69763;50.182;9.144;2024-02-26T08:46:08;98419.00;;;3.94
80422;BMP280;69763;50.182;9.144;2024-02-26T08:48:33;98411.41;;;3.98
80422;BMP280;69763;50.182;9.144;2024-02-26T08:50:59;98407.00;;;4.01
80422;BMP280;69763;50.182;9.144;2024-02-26T08:53:25;98415.19;;;4.08
80422;BMP280;69763;50.182;9.144;2024-02-26T08:55:51;98402.97;;;4.13
80422;BMP280;69763;50.182;9.144;2024-02-26T08:58:16;98411.75;;;4.13
80422;BMP280;69763;50.182;9.144;2024-02-26T09:00:42;98423.63;;;4.18
80422;BMP280;69763;50.182;9.144;2024-02-26T09:03:07;98410.88;;;4.24
80422;BMP280;69763;50.182;9.144;2024-02-26T09:05:32;98415.16;;;4.33
80422;BMP280;69763;50.182;9.144;2024-02-26T09:07:58;98417.13;;;4.32
80422;BMP280;69763;50.182;9.144;2024-02-26T09:10:24;98411.34;;;4.28
80422;BMP280;69763;50.182;9.144;2024-02-26T09:12:50;98422.28;;;4.30
80422;BMP280;69763;50.182;9.144;2024-02-26T09:15:15;98419.88;;;4.26
80422;BMP280;69763;50.182;9.144;2024-02-26T09:17:41;98418.19;;;4.23
80422;BMP280;69763;50.182;9.144;2024-02-26T09:20:07;98420.88;;;4.23
80422;BMP280;69763;50.182;9.144;2024-02-26T09:22:32;98418.34;;;4.31
80422;BMP280;69763;50.182;9.144;2024-02-26T09:24:57;98414.63;;;4.40
80422;BMP280;69763;50.182;9.144;2024-02-26T09:27:24;98422.09;;;4.47
80422;BMP280;69763;50.182;9.144;2024-02-26T09:29:49;98419.78;;;4.56
80422;BMP280;69763;50.182;9.144;2024-02-26T09:32:15;98417.47;;;4.66
80422;BMP280;69763;50.182;9.144;2024-02-26T09:34:40;98427.41;;;4.71
80422;BMP280;69763;50.182;9.144;2024-02-26T09:37:06;98426.69;;;4.71
80422;BMP280;69763;50.182;9.144;2024-02-26T09:39:31;98430.41;;;4.68
80422;BMP280;69763;50.182;9.144;2024-02-26T09:41:56;98433.50;;;4.72
80422;BMP280;69763;50.182;9.144;2024-02-26T09:44:24;98435.59;;;4.79
80422;BMP280;69763;50.182;9.144;2024-02-26T09:46:52;98435.59;;;4.79
80422;BMP280;69763;50.182;9.144;2024-02-26T09:49:18;98433.34;;;4.83
80422;BMP280;69763;50.182;9.144;2024-02-26T09:51:45;98436.91;;;4.91
80422;BMP280;69763;50.182;9.144;2024-02-26T09:54:11;98439.09;;;4.92
80422;BMP280;69763;50.182;9.144;2024-02-26T09:56:39;98443.84;;;4.99
80422;BMP280;69763;50.182;9.144;2024-02-26T09:59:06;98452.66;;;5.00
80422;BMP280;69763;50.182;9.144;2024-02-26T10:01:37;98451.19;;;4.99
80422;BMP280;69763;50.182;9.144;2024-02-26T10:04:04;98450.41;;;5.04
80422;BMP280;69763;50.182;9.144;2024-02-26T10:06:30;98450.63;;;5.06
80422;BMP280;69763;50.182;9.144;2024-02-26T10:08:55;98442.41;;;4.98
80422;BMP280;69763;50.182;9.144;2024-02-26T10:11:22;98450.53;;;4.93
80422;BMP280;69763;50.182;9.144;2024-02-26T10:13:47;98452.06;;;4.88
80422;BMP280;69763;50.182;9.144;2024-02-26T10:16:13;98455.03;;;4.85
80422;BMP280;69763;50.182;9.144;2024-02-26T10:18:47;98450.88;;;4.84
80422;BMP280;69763;50.182;9.144;2024-02-26T10:21:12;98452.28;;;4.90
80422;BMP280;69763;50.182;9.144;2024-02-26T10:23:37;98454.75;;;5.07
80422;BMP280;69763;50.182;9.144;2024-02-26T10:26:03;98469.78;;;5.16
80422;BMP280;69763;50.182;9.144;2024-02-26T10:28:29;98463.69;;;5.15
80422;BMP280;69763;50.182;9.144;2024-02-26T10:30:55;98460.56;;;5.11
80422;BMP280;69763;50.182;9.144;2024-02-26T10:33:20;98470.66;;;5.05
80422;BMP280;69763;50.182;9.144;2024-02-26T10:35:47;98461.06;;;5.10
80422;BMP280;69763;50.182;9.144;2024-02-26T10:38:13;98464.47;;;5.10
80422;BMP280;69763;50.182;9.144;2024-02-26T10:40:38;98473.19;;;5.16
80422;BMP280;69763;50.182;9.144;2024-02-26T10:43:04;98466.94;;;5.27
80422;BMP280;69763;50.182;9.144;2024-02-26T10:45:29;98477.06;;;5.34
80422;BMP280;69763;50.182;9.144;2024-02-26T10:47:55;98473.78;;;5.41
80422;BMP280;69763;50.182;9.144;2024-02-26T10:50:20;98480.22;;;5.51
80422;BMP280;69763;50.182;9.144;2024-02-26T10:52:47;98479.06;;;5.65
80422;BMP280;69763;50.182;9.144;2024-02-26T10:55:15;98481.34;;;5.74
80422;BMP280;69763;50.182;9.144;2024-02-26T10:57:41;98481.56;;;5.76
80422;BMP280;69763;50.182;9.144;2024-02-26T11:00:07;98484.84;;;5.83
80422;BMP280;69763;50.182;9.144;2024-02-26T11:02:33;98494.81;;;5.88
80422;BMP280;69763;50.182;9.144;2024-02-26T11:05:00;98489.03;;;5.97
80422;BMP280;69763;50.182;9.144;2024-02-26T11:07:27;98488.22;;;6.15
80422;BMP280;69763;50.182;9.144;2024-02-26T11:09:56;98483.03;;;6.43
80422;BMP280;69763;50.182;9.144;2024-02-26T11:12:22;98483.94;;;6.72
80422;BMP280;69763;50.182;9.144;2024-02-26T11:14:49;98480.44;;;6.98
80422;BMP280;69763;50.182;9.144;2024-02-26T11:17:15;98481.28;;;7.27
80422;BMP280;69763;50.182;9.144;2024-02-26T11:19:41;98487.47;;;7.56
80422;BMP280;69763;50.182;9.144;2024-02-26T11:22:08;98497.91;;;7.80
80422;BMP280;69763;50.182;9.144;2024-02-26T11:24:33;98509.38;;;7.73
80422;BMP280;69763;50.182;9.144;2024-02-26T11:27:02;98499.31;;;7.74
80422;BMP280;69763;50.182;9.144;2024-02-26T11:29:33;98507.91;;;7.72
80422;BMP280;69763;50.182;9.144;2024-02-26T11:31:59;98506.78;;;7.67
80422;BMP280;69763;50.182;9.144;2024-02-26T11:34:25;98504.44;;;7.92
80422;BMP280;69763;50.182;9.144;2024-02-26T11:36:51;98503.88;;;8.15
80422;BMP280;69763;50.182;9.144;2024-02-26T11:39:17;98505.47;;;8.38
80422;BMP280;69763;50.182;9.144;2024-02-26T11:41:42;98510.63;;;8.72
80422;BMP280;69763;50.182;9.144;2024-02-26T11:44:09;98516.84;;;9.03
80422;BMP280;69763;50.182;9.144;2024-02-26T11:46:38;98509.78;;;8.85
80422;BMP280;69763;50.182;9.144;2024-02-26T11:49:30;98496.09;;;8.83
80422;BMP280;69763;50.182;9.144;2024-02-26T11:51:57;98505.00;;;8.63
80422;BMP280;69763;50.182;9.144;2024-02-26T11:54:38;98504.03;;;8.45
80422;BMP280;69763;50.182;9.144;2024-02-26T11:57:03;98507.97;;;8.44
80422;BMP280;69763;50.182;9.144;2024-02-26T11:59:39;98513.88;;;8.71
80422;BMP280;69763;50.182;9.144;2024-02-26T12:02:04;98516.03;;;8.72
80422;BMP280;69763;50.182;9.144;2024-02-26T12:04:30;98518.22;;;8.74
80422;BMP280;69763;50.182;9.144;2024-02-26T12:06:56;98525.06;;;8.75
80422;BMP280;69763;50.182;9.144;2024-02-26T12:09:34;98529.41;;;8.93
80422;BMP280;69763;50.182;9.144;2024-02-26T12:12:01;98529.31;;;9.21
80422;BMP280;69763;50.182;9.144;2024-02-26T12:14:27;98528.06;;;9.38
80422;BMP280;69763;50.182;9.144;2024-02-26T12:16:55;98529.34;;;9.29
80422;BMP280;69763;50.182;9.144;2024-02-26T12:19:21;98538.72;;;9.51
80422;BMP280;69763;50.182;9.144;2024-02-26T12:21:51;98532.22;;;9.54
80422;BMP280;69763;50.182;9.144;2024-02-26T12:24:18;98522.66;;;9.53
80422;BMP280;69763;50.182;9.144;2024-02-26T12:26:43;98525.00;;;9.26
80422;BMP280;69763;50.182;9.144;2024-02-26T12:29:09;98521.53;;;9.10
80422;BMP280;69763;50.182;9.144;2024-02-26T12:31:35;98523.50;;;9.02
80422;BMP280;69763;50.182;9.144;2024-02-26T12:34:02;98529.28;;;9.06
80422;BMP280;69763;50.182;9.144;2024-02-26T12:36:28;98532.91;;;9.16
80422;BMP280;69763;50.182;9.144;2024-02-26T12:38:53;98545.56;;;9.29
80422;BMP280;69763;50.182;9.144;2024-02-26T12:41:20;98542.88;;;9.44
80422;BMP280;69763;50.182;9.144;2024-02-26T12:43:46;98543.25;;;9.71
80422;BMP280;69763;50.182;9.144;2024-02-26T12:46:11;98551.91;;;9.77
80422;BMP280;69763;50.182;9.144;2024-02-26T12:48:36;98545.59;;;9.82
80422;BMP280;69763;50.182;9.144;2024-02-26T12:51:04;98545.22;;;9.93
80422;BMP280;69763;50.182;9.144;2024-02-26T12:53:30;98541.22;;;10.10
80422;BMP280;69763;50.182;9.144;2024-02-26T12:55:55;98548.97;;;10.13
80422;BMP280;69763;50.182;9.144;2024-02-26T12:58:21;98558.50;;;10.29
80422;BMP280;69763;50.182;9.144;2024-02-26T13:00:47;98569.16;;;10.35
80422;BMP280;69763;50.182;9.144;2024-02-26T13:03:13;98569.63;;;10.48
80422;BMP280;69763;50.182;9.144;2024-02-26T13:05:39;98556.81;;;10.49
80422;BMP280;69763;50.182;9.144;2024-02-26T13:08:08;98563.66;;;10.58
80422;BMP280;69763;50.182;9.144;2024-02-26T13:10:33;98576.31;;;10.47
80422;BMP280;69763;50.182;9.144;2024-02-26T13:13:01;98568.59;;;10.36
80422;BMP280;69763;50.182;9.144;2024-02-26T13:15:27;98566.63;;;10.29
80422;BMP280;69763;50.182;9.144;2024-02-26T13:17:52;98568.28;;;10.25
80422;BMP280;69763;50.182;9.144;2024-02-26T13:20:25;98573.66;;;10.32
80422;BMP280;69763;50.182;9.144;2024-02-26T13:22:51;98578.00;;;10.35
80422;BMP280;69763;50.182;9.144;2024-02-26T13:25:21;98579.38;;;10.59
80422;BMP280;69763;50.182;9.144;2024-02-26T13:27:46;98569.13;;;10.90
80422;BMP280;69763;50.182;9.144;2024-02-26T13:30:12;98569.41;;;11.02
80422;BMP280;69763;50.182;9.144;2024-02-26T13:32:39;98571.72;;;11.13
80422;BMP280;69763;50.182;9.144;2024-02-26T13:35:06;98570.63;;;11.41
80422;BMP280;69763;50.182;9.144;2024-02-26T13:37:31;98567.25;;;11.33
80422;BMP280;69763;50.182;9.144;2024-02-26T13:39:57;98582.50;;;11.20
80422;BMP280;69763;50.182;9.144;2024-02-26T13:42:24;98583.91;;;10.97
80422;BMP280;69763;50.182;9.144;2024-02-26T13:44:49;98583.97;;;10.81
80422;BMP280;69763;50.182;9.144;2024-02-26T13:47:14;98577.56;;;10.54
80422;BMP280;69763;50.182;9.144;2024-02-26T13:49:39;98580.88;;;10.37
80422;BMP280;69763;50.182;9.144;2024-02-26T13:52:05;98590.81;;;10.35
80422;BMP280;69763;50.182;9.144;2024-02-26T13:54:31;98595.31;;;10.32
80422;BMP280;69763;50.182;9.144;2024-02-26T13:56:56;98595.16;;;10.30
80422;BMP280;69763;50.182;9.144;2024-02-26T13:59:23;98599.66;;;10.35
80422;BMP280;69763;50.182;9.144;2024-02-26T14:01:48;98598.75;;;10.33
80422;BMP280;69763;50.182;9.144;2024-02-26T14:04:13;98594.78;;;10.26
80422;BMP280;69763;50.182;9.144;2024-02-26T14:06:39;98596.97;;;10.20
80422;BMP280;69763;50.182;9.144;2024-02-26T14:09:04;98595.34;;;10.10
80422;BMP280;69763;50.182;9.144;2024-02-26T14:11:30;98596.81;;;10.11
80422;BMP280;69763;50.182;9.144;2024-02-26T14:13:55;98593.91;;;10.16